sensor_id;sensor_type;location;lat;lon;timestamp;P1;durP1;ratioP1;P2;durP2;ratioP2
22240;SDS011;11289;52.524;13.694;2023-05-29T00:01:25;7.57;;;3.50;;
22240;SDS011;11289;52.524;13.694;2023-05-29T00:03:51;11.07;;;3.92;;
22240;SDS011;11289;52.524;13.694;2023-05-29T00:06:21;8.95;;;3.80;;
22240;SDS011;11289;52.524;13.694;2023-05-29T00:08:47;9.25;;;3.58;;
22240;SDS011;11289;52.524;13.694;2023-05-29T00:11:13;8.77;;;4.38;;
22240;SDS011;11289;52.524;13.694;2023-05-29T00:13:39;9.23;;;3.90;;
22240;SDS011;11289;52.524;13.694;2023-05-29T00:16:05;6.72;;;3.38;;
22240;SDS011;11289;52.524;13.694;2023-05-29T00:18:32;6.25;;;3.72;;
22240;SDS011;11289;52.524;13.694;2023-05-29T00:20:58;7.63;;;4.13;;
22240;SDS011;11289;52.524;13.694;2023-05-29T00:23:24;8.63;;;3.58;;
22240;SDS011;11289;52.524;13.694;2023-05-29T00:25:50;7.93;;;3.33;;
22240;SDS011;11289;52.524;13.694;2023-05-29T00:28:16;9.32;;;4.15;;
22240;SDS011;11289;52.524;13.694;2023-05-29T00:30:42;9.85;;;4.20;;
22240;SDS011;11289;52.524;13.694;2023-05-29T00:33:08;7.60;;;3.67;;
22240;SDS011;11289;52.524;13.694;2023-05-29T00:35:34;7.93;;;3.70;;
22240;SDS011;11289;52.524;13.694;2023-05-29T00:38:00;6.25;;;3.17;;
22240;SDS011;11289;52.524;13.694;2023-05-29T00:40:26;8.52;;;4.53;;
22240;SDS011;11289;52.524;13.694;2023-05-29T00:42:52;9.10;;;4.72;;
22240;SDS011;11289;52.524;13.694;2023-05-29T00:45:18;7.72;;;3.83;;
22240;SDS011;11289;52.524;13.694;2023-05-29T00:47:44;8.65;;;4.15;;
22240;SDS011;11289;52.524;13.694;2023-05-29T00:50:12;7.38;;;3.78;;
22240;SDS011;11289;52.524;13.694;2023-05-29T00:52:40;11.57;;;3.78;;
22240;SDS011;11289;52.524;13.694;2023-05-29T00:55:08;7.57;;;3.70;;
22240;SDS011;11289;52.524;13.694;2023-05-29T00:57:34;11.13;;;4.35;;
22240;SDS011;11289;52.524;13.694;2023-05-29T01:00:05;10.05;;;3.72;;
22240;SDS011;11289;52.524;13.694;2023-05-29T01:02:39;7.68;;;3.97;;
22240;SDS011;11289;52.524;13.694;2023-05-29T01:05:10;10.35;;;4.60;;
22240;SDS011;11289;52.524;13.694;2023-05-29T01:07:37;7.03;;;4.20;;
22240;SDS011;11289;52.524;13.694;2023-05-29T01:10:04;9.18;;;4.10;;
22240;SDS011;11289;52.524;13.694;2023-05-29T01:12:33;12.40;;;4.50;;
22240;SDS011;11289;52.524;13.694;2023-05-29T01:20:49;9.05;;;3.95;;
22240;SDS011;11289;52.524;13.694;2023-05-29T01:28:40;9.10;;;4.15;;
22240;SDS011;11289;52.524;13.694;2023-05-29T01:31:10;10.82;;;3.97;;
22240;SDS011;11289;52.524;13.694;2023-05-29T01:33:41;7.80;;;4.03;;
22240;SDS011;11289;52.524;13.694;2023-05-29T01:36:10;11.30;;;4.50;;
22240;SDS011;11289;52.524;13.694;2023-05-29T01:38:36;11.50;;;4.75;;
22240;SDS011;11289;52.524;13.694;2023-05-29T01:41:02;8.60;;;3.50;;
22240;SDS011;11289;52.524;13.694;2023-05-29T01:43:29;8.05;;;4.20;;
22240;SDS011;11289;52.524;13.694;2023-05-29T01:45:56;7.32;;;4.47;;
22240;SDS011;11289;52.524;13.694;2023-05-29T01:48:23;9.43;;;3.88;;
22240;SDS011;11289;52.524;13.694;2023-05-29T01:50:50;10.02;;;4.57;;
22240;SDS011;11289;52.524;13.694;2023-05-29T01:53:16;9.35;;;4.00;;
22240;SDS011;11289;52.524;13.694;2023-05-29T01:55:42;8.60;;;3.65;;
22240;SDS011;11289;52.524;13.694;2023-05-29T01:58:08;7.38;;;3.90;;
22240;SDS011;11289;52.524;13.694;2023-05-29T02:00:35;8.05;;;4.05;;
22240;SDS011;11289;52.524;13.694;2023-05-29T02:03:01;11.93;;;4.25;;
22240;SDS011;11289;52.524;13.694;2023-05-29T02:05:27;9.40;;;4.53;;
22240;SDS011;11289;52.524;13.694;2023-05-29T02:07:53;11.15;;;3.50;;
22240;SDS011;11289;52.524;13.694;2023-05-29T02:10:19;10.32;;;3.78;;
22240;SDS011;11289;52.524;13.694;2023-05-29T02:12:45;8.40;;;3.90;;
22240;SDS011;11289;52.524;13.694;2023-05-29T02:15:11;11.13;;;3.78;;
22240;SDS011;11289;52.524;13.694;2023-05-29T02:17:37;13.38;;;3.55;;
22240;SDS011;11289;52.524;13.694;2023-05-29T02:20:03;8.07;;;3.88;;
22240;SDS011;11289;52.524;13.694;2023-05-29T02:22:30;7.40;;;3.55;;
22240;SDS011;11289;52.524;13.694;2023-05-29T02:24:56;9.57;;;4.18;;
22240;SDS011;11289;52.524;13.694;2023-05-29T02:27:22;7.35;;;4.25;;
22240;SDS011;11289;52.524;13.694;2023-05-29T02:29:48;8.05;;;3.97;;
22240;SDS011;11289;52.524;13.694;2023-05-29T02:32:13;7.18;;;3.72;;
22240;SDS011;11289;52.524;13.694;2023-05-29T02:34:39;8.32;;;4.15;;
22240;SDS011;11289;52.524;13.694;2023-05-29T02:37:05;8.80;;;3.90;;
22240;SDS011;11289;52.524;13.694;2023-05-29T02:39:31;6.53;;;3.65;;
22240;SDS011;11289;52.524;13.694;2023-05-29T02:41:57;8.63;;;3.88;;
22240;SDS011;11289;52.524;13.694;2023-05-29T02:44:23;10.90;;;4.55;;
22240;SDS011;11289;52.524;13.694;2023-05-29T02:46:49;7.88;;;3.67;;
22240;SDS011;11289;52.524;13.694;2023-05-29T02:49:15;9.85;;;4.35;;
22240;SDS011;11289;52.524;13.694;2023-05-29T02:51:41;8.05;;;4.03;;
22240;SDS011;11289;52.524;13.694;2023-05-29T02:54:07;8.95;;;4.18;;
22240;SDS011;11289;52.524;13.694;2023-05-29T02:56:33;11.20;;;4.43;;
22240;SDS011;11289;52.524;13.694;2023-05-29T02:59:00;9.15;;;4.38;;
22240;SDS011;11289;52.524;13.694;2023-05-29T03:01:26;11.07;;;4.32;;
22240;SDS011;11289;52.524;13.694;2023-05-29T03:03:52;9.00;;;4.30;;
22240;SDS011;11289;52.524;13.694;2023-05-29T03:06:18;9.82;;;4.15;;
22240;SDS011;11289;52.524;13.694;2023-05-29T03:08:44;9.75;;;4.28;;
22240;SDS011;11289;52.524;13.694;2023-05-29T03:11:11;8.18;;;4.30;;
22240;SDS011;11289;52.524;13.694;2023-05-29T03:13:37;11.38;;;4.55;;
22240;SDS011;11289;52.524;13.694;2023-05-29T03:16:04;8.77;;;4.10;;
22240;SDS011;11289;52.524;13.694;2023-05-29T03:18:30;8.85;;;4.90;;
22240;SDS011;11289;52.524;13.694;2023-05-29T03:20:56;6.53;;;3.95;;
22240;SDS011;11289;52.524;13.694;2023-05-29T03:23:22;9.57;;;4.03;;
22240;SDS011;11289;52.524;13.694;2023-05-29T03:25:48;10.27;;;4.30;;
22240;SDS011;11289;52.524;13.694;2023-05-29T03:28:14;12.73;;;5.15;;
22240;SDS011;11289;52.524;13.694;2023-05-29T03:30:40;11.55;;;3.80;;
22240;SDS011;11289;52.524;13.694;2023-05-29T03:33:06;9.48;;;4.40;;
22240;SDS011;11289;52.524;13.694;2023-05-29T03:35:32;11.30;;;4.95;;
22240;SDS011;11289;52.524;13.694;2023-05-29T03:37:59;9.95;;;4.28;;
22240;SDS011;11289;52.524;13.694;2023-05-29T03:40:25;9.00;;;4.18;;
22240;SDS011;11289;52.524;13.694;2023-05-29T03:42:51;11.02;;;5.13;;
22240;SDS011;11289;52.524;13.694;2023-05-29T03:45:17;10.23;;;4.72;;
22240;SDS011;11289;52.524;13.694;2023-05-29T03:47:43;10.57;;;4.40;;
22240;SDS011;11289;52.524;13.694;2023-05-29T03:50:09;8.65;;;4.32;;
22240;SDS011;11289;52.524;13.694;2023-05-29T03:52:35;6.45;;;4.22;;
22240;SDS011;11289;52.524;13.694;2023-05-29T03:55:02;9.65;;;5.00;;
22240;SDS011;11289;52.524;13.694;2023-05-29T03:57:28;10.23;;;5.22;;
22240;SDS011;11289;52.524;13.694;2023-05-29T03:59:54;8.88;;;4.03;;
22240;SDS011;11289;52.524;13.694;2023-05-29T04:02:20;9.85;;;4.35;;
22240;SDS011;11289;52.524;13.694;2023-05-29T04:04:46;9.27;;;4.28;;
22240;SDS011;11289;52.524;13.694;2023-05-29T04:07:12;7.35;;;4.15;;
22240;SDS011;11289;52.524;13.694;2023-05-29T04:09:38;9.85;;;4.50;;
22240;SDS011;11289;52.524;13.694;2023-05-29T04:12:04;10.27;;;5.05;;
22240;SDS011;11289;52.524;13.694;2023-05-29T04:14:31;12.82;;;4.88;;
22240;SDS011;11289;52.524;13.694;2023-05-29T04:16:57;6.07;;;4.10;;
22240;SDS011;11289;52.524;13.694;2023-05-29T04:19:23;7.60;;;4.22;;
22240;SDS011;11289;52.524;13.694;2023-05-29T04:21:49;8.50;;;4.25;;
22240;SDS011;11289;52.524;13.694;2023-05-29T04:24:15;8.43;;;4.57;;
22240;SDS011;11289;52.524;13.694;2023-05-29T04:26:41;7.32;;;4.18;;
22240;SDS011;11289;52.524;13.694;2023-05-29T04:29:11;7.07;;;4.57;;
22240;SDS011;11289;52.524;13.694;2023-05-29T04:31:38;8.27;;;4.72;;
22240;SDS011;11289;52.524;13.694;2023-05-29T04:34:04;9.68;;;4.70;;
22240;SDS011;11289;52.524;13.694;2023-05-29T04:36:30;7.88;;;4.57;;
22240;SDS011;11289;52.524;13.694;2023-05-29T04:38:58;10.07;;;4.47;;
22240;SDS011;11289;52.524;13.694;2023-05-29T04:41:25;8.32;;;4.18;;
22240;SDS011;11289;52.524;13.694;2023-05-29T04:43:55;13.43;;;5.20;;
22240;SDS011;11289;52.524;13.694;2023-05-29T04:46:22;9.02;;;4.45;;
22240;SDS011;11289;52.524;13.694;2023-05-29T04:48:49;9.77;;;4.60;;
22240;SDS011;11289;52.524;13.694;2023-05-29T04:51:19;9.27;;;4.35;;
22240;SDS011;11289;52.524;13.694;2023-05-29T04:53:47;10.65;;;4.80;;
22240;SDS011;11289;52.524;13.694;2023-05-29T04:56:16;8.25;;;4.65;;
22240;SDS011;11289;52.524;13.694;2023-05-29T04:58:43;10.88;;;5.15;;
22240;SDS011;11289;52.524;13.694;2023-05-29T05:01:09;8.38;;;4.53;;
22240;SDS011;11289;52.524;13.694;2023-05-29T05:03:40;10.60;;;4.28;;
22240;SDS011;11289;52.524;13.694;2023-05-29T05:06:06;11.90;;;5.15;;
22240;SDS011;11289;52.524;13.694;2023-05-29T05:08:33;11.38;;;4.60;;
22240;SDS011;11289;52.524;13.694;2023-05-29T05:11:00;9.93;;;4.20;;
22240;SDS011;11289;52.524;13.694;2023-05-29T05:13:26;10.20;;;4.38;;
22240;SDS011;11289;52.524;13.694;2023-05-29T05:15:52;10.48;;;4.53;;
22240;SDS011;11289;52.524;13.694;2023-05-29T05:18:19;7.95;;;3.70;;
22240;SDS011;11289;52.524;13.694;2023-05-29T05:20:45;10.98;;;5.22;;
22240;SDS011;11289;52.524;13.694;2023-05-29T05:23:12;11.05;;;4.47;;
22240;SDS011;11289;52.524;13.694;2023-05-29T05:25:38;7.50;;;3.75;;
22240;SDS011;11289;52.524;13.694;2023-05-29T05:28:04;4.68;;;3.45;;
22240;SDS011;11289;52.524;13.694;2023-05-29T05:30:30;5.88;;;3.47;;
22240;SDS011;11289;52.524;13.694;2023-05-29T05:32:57;5.43;;;3.40;;
22240;SDS011;11289;52.524;13.694;2023-05-29T05:35:23;5.97;;;3.95;;
22240;SDS011;11289;52.524;13.694;2023-05-29T05:37:49;7.65;;;3.63;;
22240;SDS011;11289;52.524;13.694;2023-05-29T05:40:16;9.15;;;4.38;;
22240;SDS011;11289;52.524;13.694;2023-05-29T05:42:42;6.47;;;3.78;;
22240;SDS011;11289;52.524;13.694;2023-05-29T05:45:08;4.93;;;3.13;;
22240;SDS011;11289;52.524;13.694;2023-05-29T05:47:34;5.20;;;3.28;;
22240;SDS011;11289;52.524;13.694;2023-05-29T05:50:00;6.32;;;3.60;;
22240;SDS011;11289;52.524;13.694;2023-05-29T05:52:26;9.75;;;3.72;;
22240;SDS011;11289;52.524;13.694;2023-05-29T05:54:56;6.30;;;2.80;;
22240;SDS011;11289;52.524;13.694;2023-05-29T05:57:22;7.00;;;3.35;;
22240;SDS011;11289;52.524;13.694;2023-05-29T05:59:48;5.85;;;3.20;;
22240;SDS011;11289;52.524;13.694;2023-05-29T06:02:14;4.07;;;2.47;;
22240;SDS011;11289;52.524;13.694;2023-05-29T06:04:40;8.40;;;3.25;;
22240;SDS011;11289;52.524;13.694;2023-05-29T06:07:06;7.05;;;2.63;;
22240;SDS011;11289;52.524;13.694;2023-05-29T06:09:32;6.28;;;2.90;;
22240;SDS011;11289;52.524;13.694;2023-05-29T06:11:58;4.25;;;2.67;;
22240;SDS011;11289;52.524;13.694;2023-05-29T06:14:24;4.43;;;2.35;;
22240;SDS011;11289;52.524;13.694;2023-05-29T06:16:51;6.97;;;2.25;;
22240;SDS011;11289;52.524;13.694;2023-05-29T06:19:17;5.00;;;2.47;;
22240;SDS011;11289;52.524;13.694;2023-05-29T06:21:43;6.95;;;2.25;;
22240;SDS011;11289;52.524;13.694;2023-05-29T06:24:09;4.38;;;2.30;;
22240;SDS011;11289;52.524;13.694;2023-05-29T06:26:36;4.60;;;2.08;;
22240;SDS011;11289;52.524;13.694;2023-05-29T06:29:02;3.42;;;2.20;;
22240;SDS011;11289;52.524;13.694;2023-05-29T06:31:28;3.92;;;2.33;;
22240;SDS011;11289;52.524;13.694;2023-05-29T06:33:54;5.03;;;2.00;;
22240;SDS011;11289;52.524;13.694;2023-05-29T06:36:21;2.65;;;1.92;;
22240;SDS011;11289;52.524;13.694;2023-05-29T06:38:47;6.82;;;2.42;;
22240;SDS011;11289;52.524;13.694;2023-05-29T06:41:16;2.83;;;1.80;;
22240;SDS011;11289;52.524;13.694;2023-05-29T06:43:42;4.55;;;2.00;;
22240;SDS011;11289;52.524;13.694;2023-05-29T06:46:08;3.05;;;1.83;;
22240;SDS011;11289;52.524;13.694;2023-05-29T06:48:34;2.85;;;1.67;;
22240;SDS011;11289;52.524;13.694;2023-05-29T06:51:01;4.07;;;2.10;;
22240;SDS011;11289;52.524;13.694;2023-05-29T06:53:29;3.70;;;2.00;;
22240;SDS011;11289;52.524;13.694;2023-05-29T06:55:55;4.78;;;2.03;;
22240;SDS011;11289;52.524;13.694;2023-05-29T06:58:21;5.03;;;1.73;;
22240;SDS011;11289;52.524;13.694;2023-05-29T07:00:47;4.75;;;2.15;;
22240;SDS011;11289;52.524;13.694;2023-05-29T07:03:13;3.78;;;1.75;;
22240;SDS011;11289;52.524;13.694;2023-05-29T07:05:39;1.92;;;1.42;;
22240;SDS011;11289;52.524;13.694;2023-05-29T07:08:05;2.05;;;1.48;;
22240;SDS011;11289;52.524;13.694;2023-05-29T07:10:32;4.82;;;1.80;;
22240;SDS011;11289;52.524;13.694;2023-05-29T07:12:58;5.72;;;1.75;;
22240;SDS011;11289;52.524;13.694;2023-05-29T07:15:24;4.90;;;1.75;;
22240;SDS011;11289;52.524;13.694;2023-05-29T07:17:50;7.10;;;2.30;;
22240;SDS011;11289;52.524;13.694;2023-05-29T07:20:16;3.22;;;1.35;;
22240;SDS011;11289;52.524;13.694;2023-05-29T07:22:44;3.25;;;1.85;;
22240;SDS011;11289;52.524;13.694;2023-05-29T07:25:10;3.20;;;1.65;;
22240;SDS011;11289;52.524;13.694;2023-05-29T07:27:36;2.25;;;1.52;;
22240;SDS011;11289;52.524;13.694;2023-05-29T07:30:02;5.13;;;1.75;;
22240;SDS011;11289;52.524;13.694;2023-05-29T07:32:31;6.63;;;1.80;;
22240;SDS011;11289;52.524;13.694;2023-05-29T07:34:57;2.50;;;1.45;;
22240;SDS011;11289;52.524;13.694;2023-05-29T07:37:23;4.90;;;1.70;;
22240;SDS011;11289;52.524;13.694;2023-05-29T07:39:49;3.25;;;1.45;;
22240;SDS011;11289;52.524;13.694;2023-05-29T07:42:15;3.60;;;1.55;;
22240;SDS011;11289;52.524;13.694;2023-05-29T07:44:41;3.63;;;1.70;;
22240;SDS011;11289;52.524;13.694;2023-05-29T07:47:11;5.35;;;1.60;;
22240;SDS011;11289;52.524;13.694;2023-05-29T07:49:37;5.20;;;1.63;;
22240;SDS011;11289;52.524;13.694;2023-05-29T07:52:03;2.25;;;1.38;;
22240;SDS011;11289;52.524;13.694;2023-05-29T07:54:30;6.80;;;1.67;;
22240;SDS011;11289;52.524;13.694;2023-05-29T07:56:59;3.42;;;1.67;;
22240;SDS011;11289;52.524;13.694;2023-05-29T07:59:25;3.33;;;1.33;;
22240;SDS011;11289;52.524;13.694;2023-05-29T08:01:51;4.63;;;1.55;;
22240;SDS011;11289;52.524;13.694;2023-05-29T08:04:17;2.80;;;1.85;;
22240;SDS011;11289;52.524;13.694;2023-05-29T08:06:43;5.03;;;2.05;;
22240;SDS011;11289;52.524;13.694;2023-05-29T08:09:09;3.70;;;1.60;;
22240;SDS011;11289;52.524;13.694;2023-05-29T08:11:36;5.10;;;1.67;;
22240;SDS011;11289;52.524;13.694;2023-05-29T08:14:03;4.30;;;1.90;;
22240;SDS011;11289;52.524;13.694;2023-05-29T08:16:29;3.35;;;1.77;;
22240;SDS011;11289;52.524;13.694;2023-05-29T08:18:55;3.42;;;1.80;;
22240;SDS011;11289;52.524;13.694;2023-05-29T08:21:21;4.90;;;1.70;;
22240;SDS011;11289;52.524;13.694;2023-05-29T08:23:47;2.95;;;1.42;;
22240;SDS011;11289;52.524;13.694;2023-05-29T08:26:13;4.72;;;1.65;;
22240;SDS011;11289;52.524;13.694;2023-05-29T08:28:39;3.17;;;1.70;;
22240;SDS011;11289;52.524;13.694;2023-05-29T08:31:06;3.03;;;1.55;;
22240;SDS011;11289;52.524;13.694;2023-05-29T08:33:32;3.90;;;1.85;;
22240;SDS011;11289;52.524;13.694;2023-05-29T08:35:58;3.70;;;1.70;;
22240;SDS011;11289;52.524;13.694;2023-05-29T08:38:25;3.00;;;1.63;;
22240;SDS011;11289;52.524;13.694;2023-05-29T08:40:51;4.95;;;1.40;;
22240;SDS011;11289;52.524;13.694;2023-05-29T08:43:20;4.13;;;1.52;;
22240;SDS011;11289;52.524;13.694;2023-05-29T08:45:47;3.47;;;2.08;;
22240;SDS011;11289;52.524;13.694;2023-05-29T08:48:17;4.05;;;1.60;;
22240;SDS011;11289;52.524;13.694;2023-05-29T08:50:45;4.85;;;1.63;;
22240;SDS011;11289;52.524;13.694;2023-05-29T08:53:14;4.43;;;2.33;;
22240;SDS011;11289;52.524;13.694;2023-05-29T08:55:41;6.05;;;1.75;;
22240;SDS011;11289;52.524;13.694;2023-05-29T08:58:07;3.17;;;2.03;;
22240;SDS011;11289;52.524;13.694;2023-05-29T09:00:34;3.55;;;2.20;;
22240;SDS011;11289;52.524;13.694;2023-05-29T09:03:00;3.40;;;1.90;;
22240;SDS011;11289;52.524;13.694;2023-05-29T09:05:26;4.30;;;1.95;;
22240;SDS011;11289;52.524;13.694;2023-05-29T09:07:54;4.82;;;1.67;;
22240;SDS011;11289;52.524;13.694;2023-05-29T09:10:20;3.17;;;2.00;;
22240;SDS011;11289;52.524;13.694;2023-05-29T09:12:47;4.15;;;1.77;;
22240;SDS011;11289;52.524;13.694;2023-05-29T09:15:16;4.32;;;2.00;;
22240;SDS011;11289;52.524;13.694;2023-05-29T09:17:45;3.35;;;1.70;;
22240;SDS011;11289;52.524;13.694;2023-05-29T09:20:24;4.22;;;1.65;;
22240;SDS011;11289;52.524;13.694;2023-05-29T09:22:57;6.07;;;1.65;;
22240;SDS011;11289;52.524;13.694;2023-05-29T09:25:28;3.17;;;1.73;;
22240;SDS011;11289;52.524;13.694;2023-05-29T09:28:01;4.30;;;2.10;;
22240;SDS011;11289;52.524;13.694;2023-05-29T09:30:34;2.78;;;1.60;;
22240;SDS011;11289;52.524;13.694;2023-05-29T09:33:00;4.38;;;1.60;;
22240;SDS011;11289;52.524;13.694;2023-05-29T09:35:48;2.88;;;1.85;;
22240;SDS011;11289;52.524;13.694;2023-05-29T09:38:17;3.22;;;1.63;;
22240;SDS011;11289;52.524;13.694;2023-05-29T09:40:45;3.67;;;1.55;;
22240;SDS011;11289;52.524;13.694;2023-05-29T09:43:13;2.78;;;1.77;;
22240;SDS011;11289;52.524;13.694;2023-05-29T09:45:42;4.25;;;2.00;;
22240;SDS011;11289;52.524;13.694;2023-05-29T09:48:22;6.20;;;2.45;;
22240;SDS011;11289;52.524;13.694;2023-05-29T09:50:51;6.28;;;2.38;;
22240;SDS011;11289;52.524;13.694;2023-05-29T09:53:20;4.50;;;1.92;;
22240;SDS011;11289;52.524;13.694;2023-05-29T09:55:50;4.18;;;1.60;;
22240;SDS011;11289;52.524;13.694;2023-05-29T09:58:20;4.45;;;2.03;;
22240;SDS011;11289;52.524;13.694;2023-05-29T10:00:47;2.97;;;1.75;;
22240;SDS011;11289;52.524;13.694;2023-05-29T10:03:14;4.38;;;2.20;;
22240;SDS011;11289;52.524;13.694;2023-05-29T10:05:41;6.53;;;1.77;;
22240;SDS011;11289;52.524;13.694;2023-05-29T10:08:11;5.35;;;1.70;;
22240;SDS011;11289;52.524;13.694;2023-05-29T10:10:43;4.97;;;2.72;;
22240;SDS011;11289;52.524;13.694;2023-05-29T10:13:13;6.38;;;4.78;;
22240;SDS011;11289;52.524;13.694;2023-05-29T10:15:41;5.05;;;1.95;;
22240;SDS011;11289;52.524;13.694;2023-05-29T10:18:54;3.30;;;1.90;;
22240;SDS011;11289;52.524;13.694;2023-05-29T10:21:00;6.03;;;1.88;;
22240;SDS011;11289;52.524;13.694;2023-05-29T10:23:28;4.45;;;1.77;;
22240;SDS011;11289;52.524;13.694;2023-05-29T10:26:01;2.67;;;1.50;;
22240;SDS011;11289;52.524;13.694;2023-05-29T10:28:34;3.47;;;1.63;;
22240;SDS011;11289;52.524;13.694;2023-05-29T10:31:09;3.15;;;1.52;;
22240;SDS011;11289;52.524;13.694;2023-05-29T10:33:52;2.70;;;1.67;;
22240;SDS011;11289;52.524;13.694;2023-05-29T10:36:35;4.35;;;1.58;;
22240;SDS011;11289;52.524;13.694;2023-05-29T10:39:07;6.38;;;2.00;;
22240;SDS011;11289;52.524;13.694;2023-05-29T10:41:34;2.85;;;1.38;;
22240;SDS011;11289;52.524;13.694;2023-05-29T10:49:25;5.20;;;2.85;;
22240;SDS011;11289;52.524;13.694;2023-05-29T10:51:52;3.92;;;1.88;;
22240;SDS011;11289;52.524;13.694;2023-05-29T10:54:22;2.72;;;1.42;;
22240;SDS011;11289;52.524;13.694;2023-05-29T10:56:56;3.35;;;1.48;;
22240;SDS011;11289;52.524;13.694;2023-05-29T10:59:23;4.68;;;1.77;;
22240;SDS011;11289;52.524;13.694;2023-05-29T11:01:54;5.00;;;1.65;;
22240;SDS011;11289;52.524;13.694;2023-05-29T11:06:47;2.83;;;1.50;;
22240;SDS011;11289;52.524;13.694;2023-05-29T11:09:29;2.70;;;1.88;;
22240;SDS011;11289;52.524;13.694;2023-05-29T11:14:44;3.80;;;1.52;;
22240;SDS011;11289;52.524;13.694;2023-05-29T11:20:06;2.90;;;1.67;;
22240;SDS011;11289;52.524;13.694;2023-05-29T11:22:41;3.65;;;1.88;;
22240;SDS011;11289;52.524;13.694;2023-05-29T11:25:24;3.60;;;1.65;;
22240;SDS011;11289;52.524;13.694;2023-05-29T11:27:51;2.65;;;1.60;;
22240;SDS011;11289;52.524;13.694;2023-05-29T11:30:20;3.63;;;1.73;;
22240;SDS011;11289;52.524;13.694;2023-05-29T11:32:47;3.22;;;1.48;;
22240;SDS011;11289;52.524;13.694;2023-05-29T11:35:13;3.03;;;1.83;;
22240;SDS011;11289;52.524;13.694;2023-05-29T11:37:40;3.53;;;1.80;;
22240;SDS011;11289;52.524;13.694;2023-05-29T11:40:09;6.03;;;2.88;;
22240;SDS011;11289;52.524;13.694;2023-05-29T11:42:40;3.13;;;2.13;;
22240;SDS011;11289;52.524;13.694;2023-05-29T11:45:13;4.60;;;2.72;;
22240;SDS011;11289;52.524;13.694;2023-05-29T11:50:21;3.60;;;1.83;;
22240;SDS011;11289;52.524;13.694;2023-05-29T11:52:49;4.45;;;1.60;;
22240;SDS011;11289;52.524;13.694;2023-05-29T11:55:15;3.70;;;1.90;;
22240;SDS011;11289;52.524;13.694;2023-05-29T11:57:41;3.83;;;1.98;;
22240;SDS011;11289;52.524;13.694;2023-05-29T12:00:07;2.92;;;1.42;;
22240;SDS011;11289;52.524;13.694;2023-05-29T12:02:37;4.72;;;1.80;;
22240;SDS011;11289;52.524;13.694;2023-05-29T12:05:04;4.05;;;1.83;;
22240;SDS011;11289;52.524;13.694;2023-05-29T12:07:33;4.32;;;1.70;;
22240;SDS011;11289;52.524;13.694;2023-05-29T12:10:12;4.80;;;1.60;;
22240;SDS011;11289;52.524;13.694;2023-05-29T12:12:46;3.63;;;1.73;;
22240;SDS011;11289;52.524;13.694;2023-05-29T12:15:13;3.28;;;1.50;;
22240;SDS011;11289;52.524;13.694;2023-05-29T12:17:39;3.65;;;2.08;;
22240;SDS011;11289;52.524;13.694;2023-05-29T12:20:06;5.18;;;1.85;;
22240;SDS011;11289;52.524;13.694;2023-05-29T12:22:35;2.92;;;1.77;;
22240;SDS011;11289;52.524;13.694;2023-05-29T12:25:03;3.22;;;1.98;;
22240;SDS011;11289;52.524;13.694;2023-05-29T12:27:33;2.78;;;1.50;;
22240;SDS011;11289;52.524;13.694;2023-05-29T12:30:07;2.92;;;1.83;;
22240;SDS011;11289;52.524;13.694;2023-05-29T12:32:41;2.83;;;1.70;;
22240;SDS011;11289;52.524;13.694;2023-05-29T12:35:09;5.27;;;2.03;;
22240;SDS011;11289;52.524;13.694;2023-05-29T12:37:43;7.00;;;1.67;;
22240;SDS011;11289;52.524;13.694;2023-05-29T12:40:23;2.72;;;1.40;;
22240;SDS011;11289;52.524;13.694;2023-05-29T12:42:55;3.85;;;1.73;;
22240;SDS011;11289;52.524;13.694;2023-05-29T12:45:23;2.63;;;1.50;;
22240;SDS011;11289;52.524;13.694;2023-05-29T12:50:29;4.43;;;1.58;;
22240;SDS011;11289;52.524;13.694;2023-05-29T12:52:57;6.57;;;2.13;;
22240;SDS011;11289;52.524;13.694;2023-05-29T12:55:27;5.00;;;1.98;;
22240;SDS011;11289;52.524;13.694;2023-05-29T12:57:55;4.55;;;1.60;;
22240;SDS011;11289;52.524;13.694;2023-05-29T13:00:24;5.38;;;2.30;;
22240;SDS011;11289;52.524;13.694;2023-05-29T13:02:50;4.10;;;1.90;;
22240;SDS011;11289;52.524;13.694;2023-05-29T13:05:17;7.05;;;2.50;;
22240;SDS011;11289;52.524;13.694;2023-05-29T13:07:47;6.95;;;2.42;;
22240;SDS011;11289;52.524;13.694;2023-05-29T13:10:14;4.15;;;1.80;;
22240;SDS011;11289;52.524;13.694;2023-05-29T13:12:43;5.05;;;1.70;;
22240;SDS011;11289;52.524;13.694;2023-05-29T13:15:12;4.57;;;1.98;;
22240;SDS011;11289;52.524;13.694;2023-05-29T13:17:39;3.97;;;1.60;;
22240;SDS011;11289;52.524;13.694;2023-05-29T13:20:09;4.43;;;2.30;;
22240;SDS011;11289;52.524;13.694;2023-05-29T13:22:37;5.75;;;2.08;;
22240;SDS011;11289;52.524;13.694;2023-05-29T13:25:04;3.30;;;1.65;;
22240;SDS011;11289;52.524;13.694;2023-05-29T13:27:47;5.45;;;2.00;;
22240;SDS011;11289;52.524;13.694;2023-05-29T13:31:04;3.60;;;1.95;;
22240;SDS011;11289;52.524;13.694;2023-05-29T13:33:39;3.88;;;1.77;;
22240;SDS011;11289;52.524;13.694;2023-05-29T13:36:05;3.80;;;1.90;;
22240;SDS011;11289;52.524;13.694;2023-05-29T13:38:32;5.45;;;1.77;;
22240;SDS011;11289;52.524;13.694;2023-05-29T13:40:58;4.93;;;1.88;;
22240;SDS011;11289;52.524;13.694;2023-05-29T13:43:24;3.25;;;1.92;;
22240;SDS011;11289;52.524;13.694;2023-05-29T13:45:50;3.72;;;1.77;;
22240;SDS011;11289;52.524;13.694;2023-05-29T13:48:16;3.40;;;1.60;;
22240;SDS011;11289;52.524;13.694;2023-05-29T13:50:42;5.80;;;1.85;;
22240;SDS011;11289;52.524;13.694;2023-05-29T13:53:08;3.95;;;1.58;;
22240;SDS011;11289;52.524;13.694;2023-05-29T13:55:34;2.75;;;1.70;;
22240;SDS011;11289;52.524;13.694;2023-05-29T13:58:00;4.65;;;1.77;;
22240;SDS011;11289;52.524;13.694;2023-05-29T14:00:26;4.00;;;1.73;;
22240;SDS011;11289;52.524;13.694;2023-05-29T14:02:52;5.35;;;1.60;;
22240;SDS011;11289;52.524;13.694;2023-05-29T14:05:18;5.90;;;1.45;;
22240;SDS011;11289;52.524;13.694;2023-05-29T14:07:44;3.67;;;1.60;;
22240;SDS011;11289;52.524;13.694;2023-05-29T14:10:11;8.57;;;2.05;;
22240;SDS011;11289;52.524;13.694;2023-05-29T14:12:37;4.00;;;1.63;;
22240;SDS011;11289;52.524;13.694;2023-05-29T14:15:03;2.63;;;1.38;;
22240;SDS011;11289;52.524;13.694;2023-05-29T14:17:29;5.45;;;1.83;;
22240;SDS011;11289;52.524;13.694;2023-05-29T14:19:55;2.80;;;1.48;;
22240;SDS011;11289;52.524;13.694;2023-05-29T14:22:21;4.97;;;1.38;;
22240;SDS011;11289;52.524;13.694;2023-05-29T14:24:47;5.70;;;2.42;;
22240;SDS011;11289;52.524;13.694;2023-05-29T14:27:13;2.78;;;1.77;;
22240;SDS011;11289;52.524;13.694;2023-05-29T14:29:39;4.25;;;1.88;;
22240;SDS011;11289;52.524;13.694;2023-05-29T14:32:05;6.32;;;2.00;;
22240;SDS011;11289;52.524;13.694;2023-05-29T14:34:31;4.22;;;1.40;;
22240;SDS011;11289;52.524;13.694;2023-05-29T14:36:57;5.15;;;1.73;;
22240;SDS011;11289;52.524;13.694;2023-05-29T14:39:23;3.83;;;1.50;;
22240;SDS011;11289;52.524;13.694;2023-05-29T14:41:49;4.75;;;1.90;;
22240;SDS011;11289;52.524;13.694;2023-05-29T14:44:15;3.30;;;1.90;;
22240;SDS011;11289;52.524;13.694;2023-05-29T14:46:41;3.58;;;1.63;;
22240;SDS011;11289;52.524;13.694;2023-05-29T14:49:07;4.35;;;1.80;;
22240;SDS011;11289;52.524;13.694;2023-05-29T14:51:33;6.63;;;1.58;;
22240;SDS011;11289;52.524;13.694;2023-05-29T14:54:01;5.32;;;1.65;;
22240;SDS011;11289;52.524;13.694;2023-05-29T14:56:27;4.10;;;1.90;;
22240;SDS011;11289;52.524;13.694;2023-05-29T14:58:53;5.57;;;1.55;;
22240;SDS011;11289;52.524;13.694;2023-05-29T15:01:19;3.90;;;1.60;;
22240;SDS011;11289;52.524;13.694;2023-05-29T15:03:45;4.30;;;1.70;;
22240;SDS011;11289;52.524;13.694;2023-05-29T15:06:12;5.82;;;1.92;;